• Join FlightAware (Why Join?)
  • Login
  • US Flag 
12:02AM EDT


 

Airport Tracker/Info


-or-


 

Live Flight TrackerFlight Track Log ✈ N487VC ✈ 21-Apr-2013 ✈ KTTN - KBED

Flight Track Log - Related Links

Times and Time Zones

All times are in EDT time to prevent confusion due to time zone crossing. See the N487VC flight status page for this flight to view local times or setup timezone preferences in your user account.

Time Position Orientation Groundspeed Altitude Reporting Facility
EDT Latitude Longitude Course Direction KTS MPH feet Rate Location/Type
12:11PM 40.2836 -74.8028 70° East 122 140 700  Level FAA TRACON SMA TRACON (SMA)
12:11PM 40.2878 -74.7875 70° East 141 162 1,300 1,560 Climbing FAA TRACON SMA TRACON (SMA)
12:12PM 40.2808 -74.7725 121° Southeast 147 169 1,800 1,200 Climbing FAA TRACON SMA TRACON (SMA)
12:12PM 40.2714 -74.7600 135° Southeast 110 127 2,100 1,020 Climbing FAA TRACON SMA TRACON (SMA)
12:12PM 40.2664 -74.7417 110° East 162 186 2,500 1,020 Climbing FAA TRACON SMA TRACON (SMA)
12:13PM 40.2622 -74.7239 107° East 149 171 2,800 600 Climbing FAA TRACON SMA TRACON (SMA)
12:13PM 40.2597 -74.7061 100° East 157 181 2,900 300 Climbing FAA TRACON SMA TRACON (SMA)
12:13PM 40.2553 -74.6864 106° East 166 191 3,000 720 Climbing FAA TRACON SMA TRACON (SMA)
12:14PM 40.2514 -74.6675 105° East 170 196 3,400 1,500 Climbing FAA TRACON SMA TRACON (SMA)
12:14PM 40.2453 -74.6461 111° Southeast 166 191 4,000 1,320 Climbing FAA TRACON SMA TRACON (SMA)
12:14PM 40.2403 -74.6306 113° Southeast 167 192 4,300 1,020 Climbing FAA TRACON SMA TRACON (SMA)
12:15PM 40.2350 -74.6117 110° East 167 192 4,700 1,020 Climbing FAA TRACON SMA TRACON (SMA)
12:15PM 40.2297 -74.5878 106° East 171 197 5,000 420 Climbing FAA TRACON SMA TRACON (SMA)
12:15PM 40.2253 -74.5672 106° East 186 214 5,000  Level FAA TRACON SMA TRACON (SMA)
12:16PM 40.2197 -74.5456 109° East 198 228 5,000  Level FAA TRACON SMA TRACON (SMA)
12:16PM 40.2114 -74.5186 112° Southeast 205 236 5,000  Level FAA TRACON SMA TRACON (SMA)
12:16PM 40.2036 -74.4983 117° Southeast 203 234 5,000 -180 Level FAA TRACON SMA TRACON (SMA)
12:17PM 40.1964 -74.4786 116° Southeast 194 223 4,900  Descending FAA TRACON SMA TRACON (SMA)
12:17PM 40.1886 -74.4542 113° Southeast 191 220 5,000 120 Climbing FAA TRACON SMA TRACON (SMA)
12:17PM 40.1825 -74.4339 112° Southeast 193 222 5,000  Level FAA TRACON SMA TRACON (SMA)
12:18PM 40.1769 -74.4139 110° East 190 219 5,000  Level FAA TRACON SMA TRACON (SMA)
12:18PM 40.1694 -74.3881 111° Southeast 193 222 5,000  Level FAA TRACON SMA TRACON (SMA)
12:18PM 40.1644 -74.3681 108° East 193 222 5,000  Level FAA TRACON SMA TRACON (SMA)
12:19PM 40.1581 -74.3478 112° Southeast 194 223 5,000  Level FAA TRACON SMA TRACON (SMA)
12:19PM 40.1489 -74.3231 116° Southeast 195 224 5,000  Level FAA TRACON SMA TRACON (SMA)
12:20PM 40.1489 -74.3231 108° East 195 224 5,000 360 Level FAA TRACON SMA TRACON (SMA)
12:20PM 40.1250 -74.2483 113° Southeast 202 232 5,500 600 Climbing New York Center
12:21PM 40.1061 -74.1767 109° East 199 229 6,000 240 Climbing New York Center
12:22PM 40.0753 -74.0939 116° Southeast 220 253 6,000 600 Level New York Center
12:23PM 40.0417 -74.0272 123° Southeast 220 253 7,200 1,500 Climbing New York Center
12:24PM 40.0056 -73.9739 131° Southeast 209 241 9,100 1,380 Climbing New York Center
12:25PM 39.9653 -73.9261 138° Southeast 203 234 10,000 420 Climbing New York Center
12:26PM 39.9147 -73.8617 136° Southeast 234 269 10,000  Level New York Center
12:27PM 39.8961 -73.7742 105° East 242 278 10,000 420 Level New York Center
12:28PM 39.9211 -73.6939 68° East 235 270 10,900 1,200 Climbing New York Center
12:30PM 40.0272 -73.5861 38° Northeast 216 249 13,700 1,260 Climbing Boston Center
12:31PM 40.0819 -73.5303 38° Northeast 223 257 14,800 1,200 Climbing Boston Center
12:32PM 40.1347 -73.4769 38° Northeast 235 270 16,100 900 Climbing Boston Center
12:33PM 40.1914 -73.4181 38° Northeast 246 283 16,600 420 Climbing Boston Center
12:34PM 40.2522 -73.3564 38° Northeast 260 299 17,000 180 Climbing Boston Center
12:35PM 40.3153 -73.2919 38° Northeast 273 314 17,000  Level Boston Center
12:36PM 40.3825 -73.2247 37° Northeast 290 334 17,000  Level Boston Center
12:37PM 40.4475 -73.1600 37° Northeast 290 334 17,000  Level Boston Center
12:38PM 40.5125 -73.0953 37° Northeast 290 334 17,000  Level Boston Center
12:39PM 40.5753 -73.0275 39° Northeast 295 339 17,000  Level Boston Center
12:40PM 40.6403 -72.9625 37° Northeast 295 339 17,000  Level Boston Center
12:41PM 40.7053 -72.8944 38° Northeast 295 339 17,000  Level Boston Center
12:42PM 40.7594 -72.8403 37° Northeast 295 339 17,000  Level Boston Center
12:43PM 40.8369 -72.7583 39° Northeast 295 339 17,000  Level Boston Center
12:44PM 40.9039 -72.6928 36° Northeast 295 339 17,000 -180 Level Boston Center
12:45PM 40.9706 -72.6186 40° Northeast 300 345 16,700 -540 Descending Boston Center
12:46PM 41.0311 -72.5556 38° Northeast 300 345 16,000 -780 Descending Boston Center
12:47PM 41.0978 -72.4869 38° Northeast 300 345 15,200 -540 Descending Boston Center
12:48PM 41.1625 -72.4181 39° Northeast 300 345 15,000 -120 Descending Boston Center
12:49PM 41.2250 -72.3489 40° Northeast 300 345 15,000  Level Boston Center
12:50PM 41.2936 -72.2797 37° Northeast 289 333 15,000  Level Boston Center
12:51PM 41.3539 -72.2217 36° Northeast 295 339 15,000  Level Boston Center
12:52PM 41.4353 -72.1992 12° North 259 298 15,000  Level Boston Center
12:53PM 41.5019 -72.1822 11° North 259 298 15,000 -420 Level Boston Center
12:54PM 41.5478 -72.1739 North 270 311 14,400 -1,020 Descending Boston Center
12:54PM 41.5831 -72.1625 14° North 259 298 14,000 -1,200 Descending Boston Center
12:55PM 41.6561 -72.1483 North 287 330 12,700 -1,260 Descending Boston Center
12:56PM 41.7350 -72.1231 13° North 272 313 11,500 -840 Descending Boston Center
12:57PM 41.8039 -72.1114 North 254 292 11,000 -300 Descending Boston Center
12:58PM 41.8664 -72.0917 13° North 237 273 11,000 -600 Level Boston Center
12:59PM 41.9331 -72.0772 North 237 273 9,800 -1,140 Descending Boston Center
01:00PM 41.9914 -72.0631 10° North 255 293 8,900 -1,020 Descending Boston Center
01:01PM 42.0578 -72.0067 32° Northeast 257 296 7,800 -1,200 Descending Boston Center
01:02PM 42.1158 -71.9586 32° Northeast 256 295 6,500 -840 Descending Boston Center
01:05PM 42.2500 -71.8333 35° Northeast 216 249 5,000 -480 Descending KA90
01:06PM 42.3000 -71.8000 26° Northeast 223 257 5,000  Level KA90
01:07PM 42.3500 -71.7667 26° Northeast 223 257 5,000 -180 Level KA90
01:08PM 42.4000 -71.7167 36° Northeast 221 254 4,700 -600 Descending KA90
01:09PM 42.4333 -71.6500 56° Northeast 227 261 3,800 -780 Descending KA90
01:10PM 42.4667 -71.5667 62° Northeast 214 246 3,200 -420 Descending KA90
01:11PM 42.4833 -71.5000 71° East 210 242 3,000 -300 Descending KA90
01:12PM 42.5000 -71.4167 75° East 205 236 2,600 -540 Descending KA90
01:13PM 42.5000 -71.3500 90° East 188 216 2,000 -480 Descending KA90
01:14PM 42.5000 -71.3000 90° East 161 185 1,700 -300 Descending KA90
01:15PM 42.5000 -71.2333 90° East 145 167 1,400 -480 Descending KA90
01:16PM 42.4667 -71.2500 200° South 132 152 800 -600 Descending KA90
01:18PM 42.4667 -71.2833 228° Southwest  Level FlightAware Approximate